createdAt,value
2023-03-05T00:01:35.165Z,100.00
2023-03-05T00:04:03.921Z,99.77
2023-03-05T00:06:34.194Z,97.51
2023-03-05T00:09:01.273Z,97.86
2023-03-05T00:11:30.248Z,98.24
2023-03-05T00:13:58.556Z,98.18
2023-03-05T00:16:28.280Z,97.21
2023-03-05T00:18:56.301Z,96.46
2023-03-05T00:21:22.842Z,95.62
2023-03-05T00:23:50.794Z,94.80
2023-03-05T00:26:19.681Z,94.99
2023-03-05T00:28:50.294Z,95.54
2023-03-05T00:31:18.124Z,95.47
2023-03-05T00:33:44.711Z,95.24
2023-03-05T00:36:16.105Z,94.17
2023-03-05T00:38:42.645Z,95.43
2023-03-05T00:41:11.777Z,96.36
2023-03-05T00:43:40.524Z,94.85
2023-03-05T00:46:07.301Z,95.61
2023-03-05T00:48:36.431Z,94.77
2023-03-05T00:51:09.307Z,94.88
2023-03-05T00:53:36.077Z,93.45
2023-03-05T00:56:05.487Z,94.99
2023-03-05T00:58:34.255Z,97.38
2023-03-05T01:01:04.373Z,95.88
2023-03-05T01:03:37.281Z,96.50
2023-03-05T01:06:12.630Z,95.45
2023-03-05T01:08:42.427Z,97.53
2023-03-05T01:11:12.407Z,97.50
2023-03-05T01:13:43.744Z,99.16
2023-03-05T01:16:10.321Z,98.60
2023-03-05T01:18:38.719Z,96.67
2023-03-05T01:21:07.789Z,96.78
2023-03-05T01:23:35.727Z,96.72
2023-03-05T01:26:08.641Z,96.66
2023-03-05T01:28:38.564Z,97.44
2023-03-05T01:31:08.773Z,95.55
2023-03-05T01:33:35.341Z,94.98
2023-03-05T01:36:02.087Z,96.18
2023-03-05T01:38:28.676Z,95.66
2023-03-05T01:40:55.213Z,94.97
2023-03-05T01:43:25.829Z,94.72
2023-03-05T01:46:31.380Z,94.53
2023-03-05T01:49:18.367Z,95.28
2023-03-05T01:52:00.956Z,94.14
2023-03-05T01:54:40.513Z,94.12
2023-03-05T01:57:20.162Z,95.10
2023-03-05T01:59:50.967Z,94.13
2023-03-05T02:02:23.083Z,95.09
2023-03-05T02:05:01.920Z,94.12
2023-03-05T02:07:30.015Z,95.33
2023-03-05T02:09:56.698Z,96.38
2023-03-05T02:12:23.438Z,95.87
2023-03-05T02:14:59.415Z,96.05
2023-03-05T02:17:28.070Z,95.12
2023-03-05T02:20:04.690Z,93.56
2023-03-05T02:22:33.761Z,93.95
2023-03-05T02:25:00.316Z,95.33
2023-03-05T02:27:35.648Z,95.61
2023-03-05T02:30:05.040Z,93.58
2023-03-05T02:32:34.101Z,94.38
2023-03-05T02:35:00.703Z,95.21
2023-03-05T02:37:29.452Z,94.44
2023-03-05T02:39:56.022Z,94.59
2023-03-05T02:42:25.033Z,93.58
2023-03-05T02:44:55.105Z,95.88
2023-03-05T02:47:23.854Z,96.28
2023-03-05T02:49:55.178Z,96.41
2023-03-05T02:52:23.254Z,94.02
2023-03-05T02:54:52.987Z,95.92
2023-03-05T02:57:22.406Z,96.86
2023-03-05T02:59:48.974Z,96.11
2023-03-05T03:02:17.958Z,94.98
2023-03-05T03:04:45.513Z,94.71
2023-03-05T03:07:15.886Z,95.45
2023-03-05T03:09:45.682Z,94.85
2023-03-05T03:12:12.641Z,95.74
2023-03-05T03:14:42.717Z,95.70
2023-03-05T03:17:14.274Z,96.13
2023-03-05T03:19:41.968Z,94.73
2023-03-05T03:22:11.128Z,93.74
2023-03-05T03:24:41.960Z,94.16
2023-03-05T03:27:08.916Z,94.81
2023-03-05T03:29:37.494Z,95.64
2023-03-05T03:32:04.794Z,91.51
2023-03-05T03:34:33.948Z,90.99
2023-03-05T03:37:00.486Z,91.27
2023-03-05T03:39:29.297Z,89.70
2023-03-05T03:41:58.470Z,88.75
2023-03-05T03:44:27.228Z,88.17
2023-03-05T03:46:54.849Z,87.84
2023-03-05T03:49:24.434Z,89.64
2023-03-05T03:51:55.026Z,94.47
2023-03-05T03:54:22.424Z,96.02
2023-03-05T03:56:53.777Z,96.03
2023-03-05T03:59:22.532Z,95.23
2023-03-05T04:01:49.153Z,94.84
2023-03-05T04:04:19.015Z,93.80
2023-03-05T04:06:45.579Z,95.71
2023-03-05T04:09:12.175Z,94.87
2023-03-05T04:11:41.727Z,96.44
2023-03-05T04:14:10.567Z,95.98
2023-03-05T04:16:39.383Z,96.88
2023-03-05T04:19:13.017Z,96.62
2023-03-05T04:21:40.214Z,96.12
2023-03-05T04:24:08.317Z,97.24
2023-03-05T04:26:39.927Z,97.14
2023-03-05T04:29:06.477Z,97.75
2023-03-05T04:31:33.100Z,97.71
2023-03-05T04:34:00.180Z,98.08
2023-03-05T04:36:26.769Z,97.10
2023-03-05T04:38:58.358Z,96.05
2023-03-05T04:41:24.899Z,95.29
2023-03-05T04:43:53.667Z,96.82
2023-03-05T04:46:20.204Z,96.80
2023-03-05T04:48:49.490Z,99.39
2023-03-05T04:51:16.007Z,99.83
2023-03-05T04:53:45.042Z,97.68
2023-03-05T04:56:11.591Z,96.98
2023-03-05T04:58:40.521Z,96.83
2023-03-05T05:01:10.821Z,96.49
2023-03-05T05:03:37.609Z,96.34
2023-03-05T05:06:04.394Z,96.43
2023-03-05T05:08:31.055Z,95.14
2023-03-05T05:11:05.577Z,95.35
2023-03-05T05:13:33.454Z,95.14
2023-03-05T05:16:03.275Z,96.77
2023-03-05T05:18:29.872Z,97.54
2023-03-05T05:20:56.448Z,96.92
2023-03-05T05:23:23.056Z,96.25
2023-03-05T05:25:59.279Z,98.44
2023-03-05T05:28:26.052Z,96.63
2023-03-05T05:30:52.884Z,97.60
2023-03-05T05:33:23.308Z,97.19
2023-03-05T05:35:52.654Z,97.99
2023-03-05T05:38:21.783Z,97.55
2023-03-05T05:40:48.330Z,99.52
2023-03-05T05:43:19.412Z,97.80
2023-03-05T05:45:46.058Z,99.34
2023-03-05T05:48:14.954Z,99.24
2023-03-05T05:50:43.826Z,98.59
2023-03-05T05:53:10.372Z,99.97
2023-03-05T05:55:41.137Z,99.10
2023-03-05T05:58:09.980Z,100.00
2023-03-05T06:00:38.796Z,100.00
2023-03-05T06:03:05.438Z,100.00
2023-03-05T06:05:36.975Z,100.00
2023-03-05T06:08:03.706Z,100.00
2023-03-05T06:10:30.333Z,100.00
2023-03-05T06:12:56.923Z,100.00
2023-03-05T06:15:23.458Z,100.00
2023-03-05T06:17:50.082Z,100.00
2023-03-05T06:20:16.788Z,100.00
2023-03-05T06:22:43.353Z,100.00
2023-03-05T06:25:10.569Z,100.00
2023-03-05T06:27:37.958Z,100.00
2023-03-05T06:30:10.087Z,100.00
2023-03-05T06:32:36.723Z,100.00
2023-03-05T06:35:06.258Z,100.00
2023-03-05T06:37:33.820Z,100.00
2023-03-05T06:40:02.688Z,100.00
2023-03-05T06:42:35.115Z,100.00
2023-03-05T06:45:01.703Z,100.00
2023-03-05T06:47:28.220Z,100.00
2023-03-05T06:49:56.991Z,100.00
2023-03-05T06:52:23.550Z,100.00
2023-03-05T06:54:55.821Z,100.00
2023-03-05T06:57:23.128Z,100.00
2023-03-05T06:59:50.193Z,99.12
2023-03-05T07:02:19.111Z,99.40
2023-03-05T07:04:47.792Z,98.92
2023-03-05T07:07:14.417Z,100.00
2023-03-05T07:09:46.059Z,98.84
2023-03-05T07:12:12.646Z,98.61
2023-03-05T07:14:39.523Z,97.71
2023-03-05T07:17:11.374Z,100.00
2023-03-05T07:19:38.561Z,100.00
2023-03-05T07:22:06.708Z,100.00
2023-03-05T07:24:33.277Z,99.85
2023-03-05T07:27:02.053Z,100.00
2023-03-05T07:29:29.034Z,99.37
2023-03-05T07:31:55.934Z,100.00
2023-03-05T07:34:27.185Z,100.00
2023-03-05T07:36:58.416Z,100.00
2023-03-05T07:39:29.770Z,100.00
2023-03-05T07:41:56.326Z,99.35
2023-03-05T07:44:27.390Z,100.00
2023-03-05T07:46:56.475Z,98.21
2023-03-05T07:49:23.809Z,97.88
2023-03-05T07:51:50.407Z,97.31
2023-03-05T07:54:19.156Z,96.05
2023-03-05T07:56:45.710Z,97.99
2023-03-05T07:59:13.787Z,96.88
2023-03-05T08:01:46.356Z,97.31
2023-03-05T08:04:15.973Z,95.38
2023-03-05T08:06:42.827Z,95.41
2023-03-05T08:09:09.350Z,94.71
2023-03-05T08:11:35.865Z,94.79
2023-03-05T08:14:02.425Z,96.00
2023-03-05T08:16:29.121Z,96.61
2023-03-05T08:18:59.174Z,94.88
2023-03-05T08:21:33.796Z,93.23
2023-03-05T08:24:05.009Z,92.89
2023-03-05T08:26:33.464Z,91.62
2023-03-05T08:29:00.119Z,90.77
2023-03-05T08:31:27.750Z,91.48
2023-03-05T08:33:56.576Z,92.14
2023-03-05T08:36:23.286Z,91.04
2023-03-05T08:38:50.683Z,89.25
2023-03-05T08:41:20.563Z,87.72
2023-03-05T08:43:49.628Z,81.05
2023-03-05T08:46:16.965Z,84.40
2023-03-05T08:48:43.984Z,86.44
2023-03-05T08:51:18.386Z,87.46
2023-03-05T08:53:45.875Z,87.70
2023-03-05T08:56:15.452Z,85.53
2023-03-05T08:58:46.184Z,85.49
2023-03-05T09:01:13.222Z,85.84
2023-03-05T09:03:40.010Z,84.90
2023-03-05T09:06:12.575Z,82.77
2023-03-05T09:08:39.737Z,84.28
2023-03-05T09:11:11.800Z,84.85
2023-03-05T09:13:38.488Z,83.71
2023-03-05T09:16:08.376Z,83.72
2023-03-05T09:18:36.764Z,82.05
2023-03-05T09:21:17.867Z,80.71
2023-03-05T09:23:45.371Z,81.24
2023-03-05T09:26:13.472Z,82.53
2023-03-05T09:28:40.917Z,81.64
2023-03-05T09:31:08.925Z,79.85
2023-03-05T09:33:36.792Z,79.07
2023-03-05T09:36:16.377Z,79.17
2023-03-05T09:38:47.454Z,77.99
2023-03-05T09:41:26.084Z,75.09
2023-03-05T09:44:10.975Z,76.58
2023-03-05T09:46:56.807Z,74.71
2023-03-05T09:49:39.255Z,75.43
2023-03-05T09:52:16.679Z,75.26
2023-03-05T09:54:48.576Z,73.18
2023-03-05T09:57:25.664Z,73.63
2023-03-05T09:59:59.550Z,72.92
2023-03-05T10:02:43.806Z,73.04
2023-03-05T10:05:27.228Z,72.84
2023-03-05T10:07:58.989Z,71.74
2023-03-05T10:10:47.389Z,71.20
2023-03-05T10:13:27.061Z,71.23
2023-03-05T10:16:08.894Z,70.60
2023-03-05T10:18:43.806Z,69.75
2023-03-05T10:21:22.136Z,69.35
2023-03-05T10:24:04.639Z,68.13
2023-03-05T10:27:00.430Z,68.12
2023-03-05T10:29:36.008Z,68.76
2023-03-05T10:32:29.969Z,67.12
2023-03-05T10:35:23.486Z,66.29
2023-03-05T10:38:05.289Z,64.90
2023-03-05T10:40:41.935Z,65.35
2023-03-05T10:43:19.932Z,67.97
2023-03-05T10:46:07.143Z,66.03
2023-03-05T10:48:47.600Z,62.68
2023-03-05T10:51:21.787Z,62.43
2023-03-05T10:54:13.274Z,61.90
2023-03-05T10:56:39.797Z,62.59
2023-03-05T10:59:08.563Z,64.55
2023-03-05T11:01:37.081Z,61.85
2023-03-05T11:04:08.418Z,62.67
2023-03-05T11:06:45.719Z,60.02
2023-03-05T11:09:29.674Z,61.68
2023-03-05T11:12:02.250Z,61.19
2023-03-05T11:14:33.502Z,62.64
2023-03-05T11:17:02.137Z,64.42
2023-03-05T11:19:33.411Z,64.55
2023-03-05T11:22:19.017Z,65.84
2023-03-05T11:25:02.684Z,65.80
2023-03-05T11:27:38.315Z,65.50
2023-03-05T11:30:20.236Z,66.04
2023-03-05T11:32:49.524Z,66.15
2023-03-05T11:35:35.801Z,65.12
2023-03-05T11:38:05.138Z,64.25
2023-03-05T11:40:35.884Z,63.33
2023-03-05T11:43:06.530Z,64.14
2023-03-05T11:45:34.095Z,59.84
2023-03-05T11:48:13.097Z,61.28
2023-03-05T11:50:41.812Z,61.16
2023-03-05T11:53:32.145Z,62.82
2023-03-05T11:56:22.275Z,62.07
2023-03-05T11:58:52.285Z,60.77
2023-03-05T12:01:24.929Z,61.74
2023-03-05T12:03:52.891Z,60.74
2023-03-05T12:06:37.598Z,60.15
2023-03-05T12:09:16.267Z,58.68
2023-03-05T12:11:43.431Z,57.65
2023-03-05T12:14:29.068Z,57.61
2023-03-05T12:17:09.632Z,56.24
2023-03-05T12:20:25.013Z,57.91
2023-03-05T12:22:51.684Z,56.89
2023-03-05T12:25:43.025Z,59.50
2023-03-05T12:28:18.311Z,56.98
2023-03-05T12:30:48.191Z,55.35
2023-03-05T12:33:34.959Z,56.44
2023-03-05T12:36:22.076Z,55.09
2023-03-05T12:38:58.078Z,55.98
2023-03-05T12:41:25.890Z,56.96
2023-03-05T12:44:06.046Z,54.71
2023-03-05T12:46:37.989Z,54.31
2023-03-05T12:49:28.804Z,55.86
2023-03-05T12:52:04.033Z,54.50
2023-03-05T12:54:42.362Z,56.25
2023-03-05T12:57:19.413Z,53.88
2023-03-05T13:00:21.749Z,55.96
2023-03-05T13:02:58.040Z,53.62
2023-03-05T13:05:34.276Z,53.00
2023-03-05T13:08:35.543Z,52.07
2023-03-05T13:11:16.506Z,52.12
2023-03-05T13:13:44.637Z,52.53
2023-03-05T13:16:26.870Z,52.66
2023-03-05T13:19:01.184Z,52.15
2023-03-05T13:21:31.242Z,51.26
2023-03-05T13:24:05.898Z,54.04
2023-03-05T13:26:40.542Z,52.52
2023-03-05T13:29:15.105Z,51.59
2023-03-05T13:31:46.323Z,50.82
2023-03-05T13:34:18.750Z,51.89
2023-03-05T13:37:04.546Z,52.67
2023-03-05T13:39:37.293Z,53.17
2023-03-05T13:42:15.827Z,53.05
2023-03-05T13:44:56.092Z,52.92
2023-03-05T13:47:28.641Z,52.79
2023-03-05T13:50:05.123Z,54.34
2023-03-05T13:52:41.056Z,53.79
2023-03-05T13:55:16.916Z,53.71
2023-03-05T13:57:53.121Z,54.93
2023-03-05T14:01:02.267Z,54.44
2023-03-05T14:03:30.157Z,55.83
2023-03-05T14:05:58.888Z,55.33
2023-03-05T14:08:29.943Z,53.75
2023-03-05T14:11:10.940Z,53.18
2023-03-05T14:13:37.571Z,54.28
2023-03-05T14:16:04.087Z,54.43
2023-03-05T14:18:36.793Z,51.77
2023-03-05T14:21:10.659Z,48.71
2023-03-05T14:23:45.379Z,49.51
2023-03-05T14:26:32.454Z,49.90
2023-03-05T14:29:02.098Z,50.75
2023-03-05T14:31:34.505Z,49.84
2023-03-05T14:34:09.868Z,50.78
2023-03-05T14:36:39.117Z,52.23
2023-03-05T14:39:05.758Z,50.66
2023-03-05T14:41:43.182Z,52.98
2023-03-05T14:44:17.871Z,52.39
2023-03-05T14:46:51.717Z,52.84
2023-03-05T14:49:18.369Z,55.43
2023-03-05T14:51:46.640Z,54.77
2023-03-05T14:54:22.989Z,55.04
2023-03-05T14:56:50.161Z,55.49
2023-03-05T14:59:17.954Z,55.94
2023-03-05T15:01:45.032Z,55.27
2023-03-05T15:04:15.594Z,55.44
2023-03-05T15:06:45.353Z,56.53
2023-03-05T15:09:17.737Z,55.05
2023-03-05T15:11:47.033Z,54.63
2023-03-05T15:14:13.617Z,55.52
2023-03-05T15:16:44.676Z,55.93
2023-03-05T15:19:14.473Z,54.87
2023-03-05T15:21:41.560Z,53.95
2023-03-05T15:24:11.462Z,55.81
2023-03-05T15:26:40.365Z,55.07
2023-03-05T15:29:09.225Z,55.83
2023-03-05T15:31:38.763Z,55.54
2023-03-05T15:34:05.955Z,55.18
2023-03-05T15:36:33.643Z,56.71
2023-03-05T15:39:02.614Z,54.43
2023-03-05T15:41:29.219Z,55.00
2023-03-05T15:43:55.800Z,54.97
2023-03-05T15:46:22.442Z,55.26
2023-03-05T15:48:50.294Z,56.39
2023-03-05T15:51:17.588Z,56.64
2023-03-05T15:53:46.388Z,57.72
2023-03-05T15:56:19.679Z,57.11
2023-03-05T15:58:49.589Z,57.25
2023-03-05T16:01:19.254Z,57.73
2023-03-05T16:03:48.216Z,57.52
2023-03-05T16:06:22.472Z,57.18
2023-03-05T16:08:52.509Z,56.79
2023-03-05T16:11:19.965Z,57.33
2023-03-05T16:13:50.449Z,57.94
2023-03-05T16:16:21.700Z,58.25
2023-03-05T16:18:48.447Z,57.57
2023-03-05T16:21:15.305Z,57.89
2023-03-05T16:23:44.068Z,58.03
2023-03-05T16:26:10.850Z,57.94
2023-03-05T16:28:37.662Z,58.57
2023-03-05T16:31:06.559Z,58.42
2023-03-05T16:33:33.279Z,59.88
2023-03-05T16:36:27.361Z,59.38
2023-03-05T16:39:00.960Z,59.80
2023-03-05T16:41:30.241Z,60.04
2023-03-05T16:44:02.153Z,59.79
2023-03-05T16:46:30.386Z,60.30
2023-03-05T16:49:00.241Z,61.15
2023-03-05T16:51:27.282Z,61.06
2023-03-05T16:53:55.591Z,60.16
2023-03-05T16:56:22.369Z,60.89
2023-03-05T16:58:51.391Z,62.16
2023-03-05T17:01:23.697Z,62.23
2023-03-05T17:03:54.061Z,62.74
2023-03-05T17:06:25.764Z,61.72
2023-03-05T17:08:53.072Z,61.65
2023-03-05T17:11:23.078Z,62.49
2023-03-05T17:13:49.826Z,63.01
2023-03-05T17:16:19.018Z,62.40
2023-03-05T17:18:45.957Z,62.50
2023-03-05T17:21:18.387Z,63.37
2023-03-05T17:23:47.218Z,62.87
2023-03-05T17:26:17.809Z,63.27
2023-03-05T17:28:47.367Z,63.94
2023-03-05T17:31:17.775Z,62.78
2023-03-05T17:33:44.460Z,63.88
2023-03-05T17:36:21.460Z,65.05
2023-03-05T17:38:48.703Z,66.95
2023-03-05T17:41:16.665Z,65.23
2023-03-05T17:43:43.286Z,64.50
2023-03-05T17:46:12.829Z,64.42
2023-03-05T17:48:41.892Z,63.69
2023-03-05T17:51:11.639Z,64.58
2023-03-05T17:53:40.534Z,64.80
2023-03-05T17:56:11.825Z,64.25
2023-03-05T17:58:48.613Z,65.08
2023-03-05T18:01:28.217Z,65.30
2023-03-05T18:12:02.165Z,71.02
2023-03-05T18:15:01.629Z,63.66
2023-03-05T18:17:46.294Z,64.33
2023-03-05T18:20:22.968Z,63.01
2023-03-05T18:29:54.235Z,64.57
2023-03-05T18:32:24.253Z,65.92
2023-03-05T18:34:50.839Z,67.58
2023-03-05T18:37:19.597Z,69.82
2023-03-05T18:39:46.170Z,71.68
2023-03-05T18:42:16.196Z,71.61
2023-03-05T18:44:47.616Z,69.55
2023-03-05T18:47:16.643Z,69.38
2023-03-05T18:49:43.236Z,71.35
2023-03-05T18:52:12.599Z,70.52
2023-03-05T18:54:41.608Z,70.62
2023-03-05T18:57:08.179Z,69.57
2023-03-05T18:59:37.272Z,69.34
2023-03-05T19:02:03.982Z,70.35
2023-03-05T19:04:32.951Z,72.23
2023-03-05T19:07:02.151Z,70.85
2023-03-05T19:09:48.904Z,71.54
2023-03-05T19:12:22.190Z,72.80
2023-03-05T19:14:51.218Z,72.25
2023-03-05T19:17:22.519Z,73.38
2023-03-05T19:19:56.062Z,73.71
2023-03-05T19:22:23.186Z,74.86
2023-03-05T19:24:53.028Z,74.38
2023-03-05T19:27:20.038Z,76.51
2023-03-05T19:29:46.714Z,74.62
2023-03-05T19:32:18.014Z,74.86
2023-03-05T19:34:47.177Z,74.40
2023-03-05T19:37:13.936Z,76.93
2023-03-05T19:39:43.323Z,76.91
2023-03-05T19:42:10.026Z,79.41
2023-03-05T19:44:39.041Z,77.65
2023-03-05T19:47:08.328Z,79.67
2023-03-05T19:49:35.885Z,78.61
2023-03-05T19:52:03.304Z,78.37
2023-03-05T19:54:30.007Z,78.58
2023-03-05T19:56:59.390Z,79.05
2023-03-05T19:59:26.040Z,79.35
2023-03-05T20:01:52.666Z,82.68
2023-03-05T20:04:23.087Z,82.97
2023-03-05T20:06:51.859Z,82.67
2023-03-05T20:09:20.945Z,80.51
2023-03-05T20:11:51.180Z,80.68
2023-03-05T20:14:17.768Z,81.96
2023-03-05T20:16:46.599Z,81.56
2023-03-05T20:19:17.398Z,81.07
2023-03-05T20:21:44.976Z,82.78
2023-03-05T20:24:14.532Z,81.43
2023-03-05T20:26:43.061Z,81.59
2023-03-05T20:29:10.747Z,81.23
2023-03-05T20:31:38.388Z,83.17
2023-03-05T20:34:09.900Z,82.73
2023-03-05T20:36:39.028Z,82.78
2023-03-05T20:39:06.756Z,83.31
2023-03-05T20:41:35.126Z,84.30
2023-03-05T20:44:03.362Z,83.37
2023-03-05T20:46:32.391Z,83.29
2023-03-05T20:49:03.949Z,84.72
2023-03-05T20:51:36.856Z,85.53
2023-03-05T20:54:11.929Z,86.01
2023-03-05T20:56:38.801Z,86.10
2023-03-05T20:59:09.257Z,85.98
2023-03-05T21:01:41.016Z,87.12
2023-03-05T21:04:08.868Z,87.60
2023-03-05T21:06:40.699Z,86.49
2023-03-05T21:09:12.550Z,86.97
2023-03-05T21:11:43.944Z,87.13
2023-03-05T21:14:10.628Z,88.65
2023-03-05T21:16:41.916Z,88.12
2023-03-05T21:19:08.500Z,87.68
2023-03-05T21:21:39.004Z,89.08
2023-03-05T21:24:05.906Z,88.72
2023-03-05T21:26:33.249Z,88.27
2023-03-05T21:29:02.030Z,89.23
2023-03-05T21:31:28.694Z,87.72
2023-03-05T21:33:55.257Z,88.84
2023-03-05T21:36:21.858Z,88.73
2023-03-05T21:38:53.324Z,91.43
2023-03-05T21:41:20.593Z,89.64
2023-03-05T21:43:49.929Z,89.46
2023-03-05T21:46:16.510Z,88.67
2023-03-05T21:48:43.059Z,90.29
2023-03-05T21:51:13.784Z,91.63
2023-03-05T21:53:42.686Z,91.28
2023-03-05T21:56:18.077Z,93.32
2023-03-05T21:58:44.675Z,93.13
2023-03-05T22:01:12.503Z,93.46
2023-03-05T22:03:42.375Z,94.43
2023-03-05T22:06:15.652Z,93.90
2023-03-05T22:08:47.146Z,93.08
2023-03-05T22:11:17.938Z,93.48
2023-03-05T22:13:44.647Z,93.70
2023-03-05T22:16:11.958Z,93.61
2023-03-05T22:18:40.788Z,94.54
2023-03-05T22:21:18.216Z,93.35
2023-03-05T22:23:44.872Z,99.04
2023-03-05T22:26:16.394Z,99.53
2023-03-05T22:28:45.173Z,97.50
2023-03-05T22:31:21.124Z,96.08
2023-03-05T22:33:48.025Z,96.34
2023-03-05T22:36:14.842Z,95.73
2023-03-05T22:38:44.031Z,96.62
2023-03-05T22:41:16.032Z,96.44
2023-03-05T22:43:45.553Z,98.55
2023-03-05T22:46:21.320Z,98.73
2023-03-05T22:48:48.420Z,97.11
2023-03-05T22:51:16.201Z,96.80
2023-03-05T22:53:43.204Z,96.87
2023-03-05T22:56:18.677Z,96.34
2023-03-05T22:58:48.324Z,95.40
2023-03-05T23:01:17.866Z,96.29
2023-03-05T23:03:44.550Z,96.12
2023-03-05T23:06:13.417Z,97.94
2023-03-05T23:08:39.949Z,96.56
2023-03-05T23:11:11.263Z,99.63
2023-03-05T23:13:39.502Z,97.93
2023-03-05T23:16:09.790Z,99.01
2023-03-05T23:18:41.240Z,96.83
2023-03-05T23:21:07.776Z,96.88
2023-03-05T23:23:34.331Z,98.73
2023-03-05T23:26:03.153Z,97.82
2023-03-05T23:28:29.801Z,99.76
2023-03-05T23:30:59.693Z,97.41
2023-03-05T23:33:27.198Z,97.33
2023-03-05T23:35:56.647Z,97.95
2023-03-05T23:38:28.039Z,98.32
2023-03-05T23:41:01.420Z,99.10
2023-03-05T23:43:28.093Z,100.00
2023-03-05T23:45:57.205Z,100.00
2023-03-05T23:48:28.612Z,100.00
2023-03-05T23:50:55.906Z,100.00
2023-03-05T23:53:25.077Z,100.00
2023-03-05T23:55:52.482Z,100.00
2023-03-05T23:58:22.768Z,100.00
